createdAt,value
2023-04-16T00:00:23.744Z,18.23
2023-04-16T00:02:53.728Z,18.25
2023-04-16T00:05:23.965Z,19.38
2023-04-16T00:07:54.283Z,19.20
2023-04-16T00:10:24.134Z,18.75
2023-04-16T00:12:53.985Z,18.65
2023-04-16T00:15:26.671Z,18.30
2023-04-16T00:17:56.926Z,17.42
2023-04-16T00:20:26.925Z,17.08
2023-04-16T00:22:56.748Z,16.52
2023-04-16T00:25:26.684Z,18.25
2023-04-16T00:27:56.673Z,17.15
2023-04-16T00:30:29.593Z,18.00
2023-04-16T00:32:59.936Z,17.27
2023-04-16T00:35:29.921Z,18.25
2023-04-16T00:37:59.718Z,18.27
2023-04-16T00:40:31.521Z,16.75
2023-04-16T00:43:01.468Z,17.73
2023-04-16T00:45:34.151Z,17.52
2023-04-16T00:48:04.478Z,16.45
2023-04-16T00:50:34.761Z,16.90
2023-04-16T00:53:04.927Z,16.23
2023-04-16T00:55:34.894Z,16.08
2023-04-16T00:58:05.888Z,15.77
2023-04-16T01:00:41.755Z,15.05
2023-04-16T01:03:12.534Z,15.48
2023-04-16T01:05:42.810Z,15.82
2023-04-16T01:08:19.563Z,14.70
2023-04-16T01:10:49.530Z,15.18
2023-04-16T01:13:19.507Z,14.57
2023-04-16T01:15:52.039Z,13.88
2023-04-16T01:18:23.697Z,15.80
2023-04-16T01:20:56.177Z,14.85
2023-04-16T01:23:26.060Z,15.55
2023-04-16T01:25:56.336Z,15.38
2023-04-16T01:28:26.540Z,15.30
2023-04-16T01:30:56.415Z,15.10
2023-04-16T01:33:26.349Z,14.90
2023-04-16T01:35:58.834Z,13.88
2023-04-16T01:38:28.682Z,13.95
2023-04-16T01:41:00.148Z,13.65
2023-04-16T01:43:30.154Z,13.77
2023-04-16T01:46:15.131Z,14.75
2023-04-16T01:51:17.380Z,13.50
2023-04-16T01:53:47.246Z,12.77
2023-04-16T01:56:17.092Z,14.40
2023-04-16T01:58:47.386Z,13.88
2023-04-16T02:01:17.613Z,15.25
2023-04-16T02:03:47.851Z,15.30
2023-04-16T02:06:20.607Z,15.02
2023-04-16T02:08:50.441Z,14.85
2023-04-16T02:11:20.310Z,15.70
2023-04-16T02:13:50.228Z,15.23
2023-04-16T02:16:20.148Z,14.45
2023-04-16T02:18:50.243Z,15.98
2023-04-16T02:21:23.010Z,14.48
2023-04-16T02:23:52.848Z,15.45
2023-04-16T02:26:22.776Z,15.85
2023-04-16T02:28:52.653Z,15.07
2023-04-16T02:31:22.963Z,15.15
2023-04-16T02:33:52.888Z,15.90
2023-04-16T02:36:25.705Z,15.85
2023-04-16T02:38:55.574Z,15.18
2023-04-16T02:41:25.718Z,15.07
2023-04-16T02:43:55.520Z,16.52
2023-04-16T02:46:25.544Z,15.25
2023-04-16T02:48:55.567Z,14.95
2023-04-16T02:51:28.070Z,16.00
2023-04-16T02:53:58.016Z,16.67
2023-04-16T02:56:28.023Z,16.40
2023-04-16T02:58:57.857Z,15.13
2023-04-16T03:01:28.618Z,15.10
2023-04-16T03:03:58.568Z,14.55
2023-04-16T03:06:31.731Z,16.10
2023-04-16T03:09:01.676Z,14.85
2023-04-16T03:11:31.590Z,15.68
2023-04-16T03:14:01.567Z,15.77
2023-04-16T03:16:31.540Z,14.15
2023-04-16T03:19:01.749Z,15.80
2023-04-16T03:21:34.242Z,15.27
2023-04-16T03:24:04.180Z,14.18
2023-04-16T03:26:34.024Z,15.20
2023-04-16T03:29:04.878Z,13.82
2023-04-16T03:31:34.976Z,15.20
2023-04-16T03:34:04.962Z,15.10
2023-04-16T03:36:37.407Z,14.70
2023-04-16T03:39:07.430Z,16.77
2023-04-16T03:41:37.446Z,16.33
2023-04-16T03:44:07.287Z,17.42
2023-04-16T03:46:37.133Z,17.65
2023-04-16T03:49:07.044Z,18.27
2023-04-16T03:51:39.630Z,18.88
2023-04-16T03:54:09.443Z,18.77
2023-04-16T03:56:39.321Z,19.80
2023-04-16T03:59:09.478Z,18.80
2023-04-16T04:01:39.634Z,18.75
2023-04-16T04:04:09.867Z,18.75
2023-04-16T04:06:42.413Z,18.30
2023-04-16T04:09:12.258Z,18.60
2023-04-16T04:11:42.172Z,18.58
2023-04-16T04:14:12.114Z,19.90
2023-04-16T04:16:41.969Z,16.45
2023-04-16T04:19:12.121Z,19.90
2023-04-16T04:21:44.560Z,19.25
2023-04-16T04:24:14.379Z,18.98
2023-04-16T04:26:44.253Z,18.27
2023-04-16T04:29:14.092Z,18.02
2023-04-16T04:31:44.060Z,19.50
2023-04-16T04:34:13.962Z,19.30
2023-04-16T04:36:46.434Z,18.23
2023-04-16T04:39:16.440Z,19.80
2023-04-16T04:41:46.579Z,19.48
2023-04-16T04:44:16.556Z,19.58
2023-04-16T04:46:46.421Z,20.77
2023-04-16T04:49:16.266Z,20.15
2023-04-16T04:51:48.906Z,21.73
2023-04-16T04:54:18.792Z,21.08
2023-04-16T04:56:48.631Z,22.00
2023-04-16T04:59:18.462Z,23.63
2023-04-16T05:01:48.376Z,22.83
2023-04-16T05:04:18.518Z,21.65
2023-04-16T05:06:51.138Z,23.58
2023-04-16T05:09:21.102Z,22.23
2023-04-16T05:11:50.984Z,21.65
2023-04-16T05:14:20.893Z,22.10
2023-04-16T05:16:50.791Z,22.77
2023-04-16T05:19:21.349Z,22.85
2023-04-16T05:21:53.791Z,24.92
2023-04-16T05:24:23.669Z,27.48
2023-04-16T05:26:53.530Z,26.42
2023-04-16T05:29:23.390Z,26.88
2023-04-16T05:31:53.203Z,28.17
2023-04-16T05:34:23.056Z,28.40
2023-04-16T05:36:55.468Z,28.92
2023-04-16T05:39:25.713Z,28.98
2023-04-16T05:41:55.689Z,27.85
2023-04-16T05:44:25.549Z,29.00
2023-04-16T05:46:55.426Z,29.85
2023-04-16T05:49:25.313Z,29.33
2023-04-16T05:51:57.767Z,28.55
2023-04-16T05:54:27.604Z,28.83
2023-04-16T05:56:57.645Z,29.45
2023-04-16T05:59:27.537Z,29.08
2023-04-16T06:01:57.434Z,29.40
2023-04-16T06:04:27.341Z,29.92
2023-04-16T06:06:59.765Z,28.63
2023-04-16T06:09:29.609Z,29.55
2023-04-16T06:11:59.534Z,27.80
2023-04-16T06:14:29.419Z,27.25
2023-04-16T06:16:59.353Z,27.15
2023-04-16T06:19:29.361Z,28.30
2023-04-16T06:22:01.849Z,27.50
2023-04-16T06:24:31.749Z,28.67
2023-04-16T06:27:01.759Z,27.35
2023-04-16T06:29:40.360Z,28.38
2023-04-16T06:32:11.839Z,28.17
2023-04-16T06:34:41.784Z,28.08
2023-04-16T06:37:14.271Z,26.70
2023-04-16T06:39:44.127Z,26.00
2023-04-16T06:42:14.053Z,27.02
2023-04-16T06:44:44.086Z,27.90
2023-04-16T06:47:13.924Z,26.00
2023-04-16T06:49:43.800Z,27.98
2023-04-16T06:52:16.316Z,27.67
2023-04-16T06:54:46.202Z,26.15
2023-04-16T06:57:16.195Z,25.83
2023-04-16T06:59:46.057Z,26.80
2023-04-16T07:02:16.129Z,27.15
2023-04-16T07:04:46.361Z,24.75
2023-04-16T07:07:18.835Z,25.70
2023-04-16T07:09:48.698Z,27.75
2023-04-16T07:12:19.950Z,26.17
2023-04-16T07:14:50.803Z,26.90
2023-04-16T07:17:20.691Z,25.48
2023-04-16T07:19:50.672Z,26.33
2023-04-16T07:22:23.184Z,25.75
2023-04-16T07:24:53.040Z,23.23
2023-04-16T07:27:22.911Z,25.40
2023-04-16T07:29:52.862Z,22.48
2023-04-16T07:32:24.406Z,21.73
2023-04-16T07:34:54.602Z,23.70
2023-04-16T07:37:27.168Z,23.58
2023-04-16T07:39:57.820Z,22.50
2023-04-16T07:42:27.783Z,23.67
2023-04-16T07:44:58.304Z,24.23
2023-04-16T07:47:28.734Z,21.58
2023-04-16T07:49:58.593Z,21.35
2023-04-16T07:52:31.066Z,20.95
2023-04-16T07:55:01.039Z,21.33
2023-04-16T07:57:31.301Z,20.00
2023-04-16T08:00:02.184Z,20.33
2023-04-16T08:02:32.326Z,21.33
2023-04-16T08:05:02.584Z,21.27
2023-04-16T08:07:35.112Z,19.58
2023-04-16T08:10:05.071Z,21.42
2023-04-16T08:12:36.313Z,18.15
2023-04-16T08:15:06.451Z,19.65
2023-04-16T08:17:37.889Z,19.38
2023-04-16T08:20:09.586Z,19.65
2023-04-16T08:22:43.071Z,17.80
2023-04-16T08:25:13.417Z,18.35
2023-04-16T08:27:43.351Z,18.67
2023-04-16T08:30:13.603Z,17.02
2023-04-16T08:32:43.507Z,17.77
2023-04-16T08:35:13.429Z,17.55
2023-04-16T08:37:46.206Z,17.17
2023-04-16T08:40:16.231Z,19.38
2023-04-16T08:42:51.394Z,17.63
2023-04-16T08:45:21.769Z,18.52
2023-04-16T08:47:53.251Z,18.27
2023-04-16T08:50:26.817Z,19.25
2023-04-16T08:53:02.006Z,18.60
2023-04-16T08:55:39.251Z,18.45
2023-04-16T08:58:12.555Z,16.92
2023-04-16T09:00:43.594Z,19.75
2023-04-16T09:03:14.017Z,18.73
2023-04-16T09:05:45.620Z,17.63
2023-04-16T09:08:18.564Z,17.23
2023-04-16T09:10:49.340Z,17.48
2023-04-16T09:13:20.658Z,18.67
2023-04-16T09:15:50.905Z,19.08
2023-04-16T09:18:21.423Z,18.63
2023-04-16T09:20:52.592Z,18.67
2023-04-16T09:23:25.559Z,19.63
2023-04-16T09:25:55.715Z,16.52
2023-04-16T09:28:45.292Z,19.08
2023-04-16T09:31:17.272Z,18.10
2023-04-16T09:34:03.798Z,17.75
2023-04-16T09:36:34.237Z,19.20
2023-04-16T09:39:07.306Z,17.95
2023-04-16T09:41:39.806Z,18.80
2023-04-16T09:44:09.734Z,17.80
2023-04-16T09:46:43.372Z,19.00
2023-04-16T09:49:16.252Z,16.83
2023-04-16T09:51:48.120Z,18.80
2023-04-16T09:54:22.318Z,16.80
2023-04-16T09:56:52.164Z,18.83
2023-04-16T09:59:22.335Z,17.75
2023-04-16T10:01:53.756Z,19.38
2023-04-16T10:04:50.818Z,19.30
2023-04-16T10:07:21.504Z,20.10
2023-04-16T10:09:56.015Z,18.73
2023-04-16T10:14:55.759Z,20.50
2023-04-16T10:17:26.316Z,20.02
2023-04-16T10:19:57.213Z,20.92
2023-04-16T10:22:27.350Z,20.58
2023-04-16T10:25:00.660Z,17.90
2023-04-16T10:27:31.384Z,19.45
2023-04-16T10:30:01.573Z,18.15
2023-04-16T10:32:33.708Z,18.70
2023-04-16T10:35:03.632Z,17.40
2023-04-16T10:37:34.713Z,19.20
2023-04-16T10:40:25.553Z,17.00
2023-04-16T10:43:02.432Z,18.17
2023-04-16T10:45:39.904Z,17.45
2023-04-16T10:48:11.874Z,16.52
2023-04-16T10:50:41.992Z,16.00
2023-04-16T10:53:26.111Z,16.55
2023-04-16T10:56:25.273Z,16.80
2023-04-16T10:58:56.662Z,16.08
2023-04-16T11:01:34.611Z,15.75
2023-04-16T11:04:25.656Z,15.48
2023-04-16T11:07:09.890Z,14.20
2023-04-16T11:09:52.793Z,14.93
2023-04-16T11:12:27.718Z,12.95
2023-04-16T11:15:01.663Z,13.68
2023-04-16T11:20:03.623Z,13.50
2023-04-16T11:22:48.032Z,12.77
2023-04-16T11:25:23.321Z,12.05
2023-04-16T11:27:57.167Z,12.27
2023-04-16T11:30:33.943Z,12.40
2023-04-16T11:33:05.586Z,12.48
2023-04-16T11:35:35.648Z,11.60
2023-04-16T11:38:06.468Z,11.68
2023-04-16T11:40:37.248Z,11.20
2023-04-16T11:43:17.268Z,11.93
2023-04-16T11:46:07.424Z,11.05
2023-04-16T11:48:49.571Z,12.20
2023-04-16T11:51:21.906Z,11.52
2023-04-16T11:53:53.246Z,12.38
2023-04-16T11:56:30.450Z,10.65
2023-04-16T11:59:13.835Z,10.70
2023-04-16T12:01:46.117Z,9.93
2023-04-16T12:04:17.303Z,9.70
2023-04-16T12:07:08.883Z,10.57
2023-04-16T12:09:40.805Z,10.55
2023-04-16T12:12:31.392Z,10.35
2023-04-16T12:15:05.929Z,10.05
2023-04-16T12:17:37.865Z,9.55
2023-04-16T12:20:12.562Z,8.18
2023-04-16T12:22:47.861Z,8.80
2023-04-16T12:25:19.701Z,8.27
2023-04-16T12:27:53.428Z,9.13
2023-04-16T12:30:27.788Z,9.80
2023-04-16T12:33:18.006Z,8.27
2023-04-16T12:35:48.389Z,8.70
2023-04-16T12:38:18.372Z,12.40
2023-04-16T12:40:48.481Z,10.63
2023-04-16T12:43:18.493Z,10.68
2023-04-16T12:45:51.137Z,9.13
2023-04-16T12:48:21.013Z,10.07
2023-04-16T12:50:50.849Z,10.02
2023-04-16T12:53:20.736Z,9.85
2023-04-16T12:55:51.001Z,12.88
2023-04-16T12:58:20.862Z,10.77
2023-04-16T13:00:53.345Z,11.85
2023-04-16T13:03:23.673Z,10.60
2023-04-16T13:05:53.736Z,14.70
2023-04-16T13:08:23.648Z,13.35
2023-04-16T13:10:53.552Z,11.50
2023-04-16T13:13:23.577Z,10.27
2023-04-16T13:15:56.121Z,9.93
2023-04-16T13:18:26.469Z,11.88
2023-04-16T13:20:56.752Z,9.57
2023-04-16T13:23:27.196Z,11.10
2023-04-16T13:25:57.233Z,10.20
2023-04-16T13:28:28.116Z,9.35
2023-04-16T13:31:03.401Z,10.75
2023-04-16T13:33:35.018Z,11.02
2023-04-16T13:36:05.065Z,11.07
2023-04-16T13:38:35.037Z,11.15
2023-04-16T13:41:06.136Z,12.05
2023-04-16T13:43:36.027Z,11.35
2023-04-16T13:46:09.674Z,10.77
2023-04-16T13:48:39.620Z,12.00
2023-04-16T13:51:09.477Z,12.75
2023-04-16T13:53:39.316Z,12.68
2023-04-16T13:56:09.701Z,13.18
2023-04-16T13:58:39.553Z,12.70
2023-04-16T14:01:13.103Z,13.10
2023-04-16T14:03:43.311Z,12.93
2023-04-16T14:06:13.864Z,12.25
2023-04-16T14:08:43.756Z,12.65
2023-04-16T14:11:14.376Z,13.52
2023-04-16T14:13:44.899Z,14.38
2023-04-16T14:16:17.406Z,13.27
2023-04-16T14:18:47.360Z,12.35
2023-04-16T14:21:17.230Z,14.57
2023-04-16T14:23:47.153Z,14.65
2023-04-16T14:26:17.169Z,14.75
2023-04-16T14:28:47.479Z,16.48
2023-04-16T14:31:20.102Z,15.10
2023-04-16T14:33:50.285Z,16.10
2023-04-16T14:36:21.242Z,15.88
2023-04-16T14:38:51.182Z,16.55
2023-04-16T14:41:21.086Z,16.35
2023-04-16T14:43:51.085Z,16.77
2023-04-16T14:46:23.579Z,18.35
2023-04-16T14:48:53.458Z,18.38
2023-04-16T14:51:23.539Z,18.90
2023-04-16T14:53:53.482Z,18.90
2023-04-16T14:56:23.331Z,18.58
2023-04-16T14:58:53.209Z,19.00
2023-04-16T15:01:26.283Z,20.10
2023-04-16T15:03:58.309Z,19.33
2023-04-16T15:06:29.825Z,20.27
2023-04-16T15:08:59.658Z,19.25
2023-04-16T15:11:30.231Z,20.42
2023-04-16T15:14:00.193Z,20.92
2023-04-16T15:16:33.361Z,22.20
2023-04-16T15:19:05.114Z,23.10
2023-04-16T15:21:35.239Z,22.27
2023-04-16T15:24:05.150Z,21.15
2023-04-16T15:26:35.104Z,22.70
2023-04-16T15:29:05.008Z,22.83
2023-04-16T15:31:37.475Z,22.70
2023-04-16T15:34:07.441Z,23.27
2023-04-16T15:36:37.278Z,24.05
2023-04-16T15:39:07.296Z,24.50
2023-04-16T15:41:50.086Z,23.77
2023-04-16T15:44:29.336Z,24.25
2023-04-16T15:47:02.159Z,24.48
2023-04-16T15:49:32.008Z,24.50
2023-04-16T15:52:02.120Z,24.25
2023-04-16T15:54:32.560Z,25.70
2023-04-16T15:57:02.451Z,27.55
2023-04-16T15:59:32.846Z,25.92
2023-04-16T16:02:05.390Z,28.38
2023-04-16T16:04:35.757Z,27.67
2023-04-16T16:07:05.888Z,26.70
2023-04-16T16:09:35.810Z,27.15
2023-04-16T16:12:05.782Z,26.17
2023-04-16T16:14:36.287Z,24.95
2023-04-16T16:17:08.747Z,25.58
2023-04-16T16:19:38.575Z,25.92
2023-04-16T16:22:09.464Z,36.75
2023-04-16T16:24:39.340Z,31.00
2023-04-16T16:27:09.359Z,27.95
2023-04-16T16:29:39.205Z,25.08
2023-04-16T16:32:11.931Z,25.25
2023-04-16T16:34:41.877Z,23.58
2023-04-16T16:37:11.790Z,25.33
2023-04-16T16:39:41.666Z,23.45
2023-04-16T16:42:11.692Z,24.67
2023-04-16T16:44:41.541Z,23.42
2023-04-16T16:47:13.972Z,23.80
2023-04-16T16:49:43.867Z,23.98
2023-04-16T16:52:13.771Z,23.92
2023-04-16T16:54:43.646Z,24.40
2023-04-16T16:57:15.749Z,26.45
2023-04-16T16:59:45.585Z,24.65
2023-04-16T17:02:18.051Z,25.38
2023-04-16T17:04:47.993Z,25.23
2023-04-16T17:07:17.833Z,24.85
2023-04-16T17:09:47.692Z,24.08
2023-04-16T17:12:17.548Z,24.75
2023-04-16T17:14:47.414Z,27.35
2023-04-16T17:17:20.012Z,24.77
2023-04-16T17:19:49.873Z,26.67
2023-04-16T17:22:19.748Z,26.83
2023-04-16T17:24:49.611Z,26.27
2023-04-16T17:27:19.743Z,28.45
2023-04-16T17:29:49.601Z,26.00
2023-04-16T17:32:22.250Z,25.50
2023-04-16T17:34:52.137Z,26.13
2023-04-16T17:37:22.054Z,24.73
2023-04-16T17:39:51.978Z,25.98
2023-04-16T17:42:21.896Z,26.45
2023-04-16T17:44:51.994Z,25.10
2023-04-16T17:47:24.452Z,24.02
2023-04-16T17:49:56.627Z,23.88
2023-04-16T17:52:26.524Z,24.85
2023-04-16T17:55:01.643Z,23.90
2023-04-16T17:57:32.065Z,23.77
2023-04-16T18:00:02.044Z,24.55
2023-04-16T18:02:35.319Z,22.10
2023-04-16T18:05:05.281Z,24.67
2023-04-16T18:07:35.586Z,24.80
2023-04-16T18:10:05.660Z,24.50
2023-04-16T18:12:35.648Z,24.85
2023-04-16T18:15:05.847Z,24.95
2023-04-16T18:17:38.354Z,25.25
2023-04-16T18:20:11.820Z,25.75
2023-04-16T18:22:41.649Z,25.67
2023-04-16T18:25:12.155Z,26.70
2023-04-16T18:27:42.197Z,27.45
2023-04-16T18:30:19.985Z,26.30
2023-04-16T18:33:19.473Z,27.10
2023-04-16T18:35:45.649Z,25.38
2023-04-16T18:38:16.167Z,24.40
2023-04-16T18:40:49.906Z,25.35
2023-04-16T18:43:19.761Z,23.65
2023-04-16T18:45:49.654Z,23.33
2023-04-16T18:48:22.086Z,24.00
2023-04-16T18:50:51.955Z,24.52
2023-04-16T18:53:21.789Z,22.33
2023-04-16T18:55:55.827Z,24.38
2023-04-16T18:58:25.638Z,23.73
2023-04-16T19:00:55.834Z,23.77
2023-04-16T19:03:29.560Z,22.50
2023-04-16T19:05:59.645Z,22.50
2023-04-16T19:08:29.489Z,23.77
2023-04-16T19:10:59.390Z,22.50
2023-04-16T19:13:30.529Z,22.45
2023-04-16T19:16:01.721Z,22.15
2023-04-16T19:18:34.392Z,22.15
2023-04-16T19:21:04.728Z,21.50
2023-04-16T19:23:34.551Z,21.27
2023-04-16T19:26:04.462Z,22.30
2023-04-16T19:28:34.368Z,22.58
2023-04-16T19:31:04.278Z,22.35
2023-04-16T19:33:36.716Z,22.45
2023-04-16T19:36:06.900Z,22.60
2023-04-16T19:38:36.760Z,22.00
2023-04-16T19:41:06.610Z,21.50
2023-04-16T19:43:37.162Z,21.70
2023-04-16T19:46:07.181Z,20.80
2023-04-16T19:48:39.591Z,21.77
2023-04-16T19:51:09.512Z,22.45
2023-04-16T19:53:39.380Z,21.95
2023-04-16T19:56:09.414Z,19.73
2023-04-16T19:58:39.339Z,20.23
2023-04-16T20:01:11.706Z,21.13
2023-04-16T20:03:44.226Z,19.23
2023-04-16T20:06:14.157Z,20.55
2023-04-16T20:08:44.933Z,19.45
2023-04-16T20:11:14.857Z,19.48
2023-04-16T20:13:44.722Z,19.33
2023-04-16T20:16:14.632Z,18.05
2023-04-16T20:18:47.080Z,18.85
2023-04-16T20:21:16.922Z,18.33
2023-04-16T20:23:46.760Z,18.23
2023-04-16T20:26:18.419Z,17.67
2023-04-16T20:28:48.447Z,17.98
2023-04-16T20:31:18.383Z,18.20
2023-04-16T20:33:50.835Z,18.02
2023-04-16T20:36:20.749Z,18.38
2023-04-16T20:38:53.738Z,17.90
2023-04-16T20:41:25.325Z,18.13
2023-04-16T20:43:55.171Z,17.38
2023-04-16T20:46:25.415Z,17.65
2023-04-16T20:48:57.841Z,17.48
2023-04-16T20:51:27.701Z,17.15
2023-04-16T20:53:57.717Z,17.70
2023-04-16T20:56:27.588Z,18.27
2023-04-16T20:58:59.460Z,18.08
2023-04-16T21:01:29.318Z,18.40
2023-04-16T21:04:02.006Z,17.48
2023-04-16T21:06:32.976Z,18.05
2023-04-16T21:09:02.839Z,17.52
2023-04-16T21:11:35.209Z,17.35
2023-04-16T21:14:05.167Z,17.67
2023-04-16T21:16:35.575Z,17.08
2023-04-16T21:19:08.972Z,18.92
2023-04-16T21:21:39.350Z,16.73
2023-04-16T21:24:10.039Z,18.13
2023-04-16T21:26:39.890Z,17.60
2023-04-16T21:29:10.062Z,17.52
2023-04-16T21:31:40.068Z,17.40
2023-04-16T21:34:12.501Z,18.83
2023-04-16T21:36:42.403Z,18.00
2023-04-16T21:39:12.487Z,18.35
2023-04-16T21:41:42.444Z,18.35
2023-04-16T21:44:12.288Z,19.88
2023-04-16T21:46:42.267Z,18.45
2023-04-16T21:49:14.805Z,19.27
2023-04-16T21:51:46.194Z,17.77
2023-04-16T21:54:18.016Z,18.50
2023-04-16T21:56:47.941Z,18.50
2023-04-16T21:59:17.797Z,18.65
2023-04-16T22:01:47.685Z,18.00
2023-04-16T22:04:26.583Z,19.02
2023-04-16T22:06:57.279Z,18.95
2023-04-16T22:09:27.543Z,17.70
2023-04-16T22:11:57.762Z,18.65
2023-04-16T22:14:27.889Z,17.50
2023-04-16T22:16:58.777Z,17.33
2023-04-16T22:19:31.369Z,17.52
2023-04-16T22:22:01.288Z,18.95
2023-04-16T22:24:31.246Z,17.75
2023-04-16T22:27:01.536Z,17.05
2023-04-16T22:29:31.641Z,18.15
2023-04-16T22:32:02.063Z,17.85
2023-04-16T22:34:34.688Z,17.38
2023-04-16T22:37:04.750Z,18.63
2023-04-16T22:39:34.663Z,18.38
2023-04-16T22:42:04.692Z,17.42
2023-04-16T22:44:34.529Z,18.58
2023-04-16T22:47:04.430Z,16.95
2023-04-16T22:49:37.198Z,18.25
2023-04-16T22:52:07.128Z,17.52
2023-04-16T22:54:36.928Z,17.95
2023-04-16T22:57:06.885Z,17.05
2023-04-16T22:59:36.708Z,17.27
2023-04-16T23:02:09.316Z,18.85
2023-04-16T23:04:41.742Z,17.63
2023-04-16T23:07:11.589Z,18.08
2023-04-16T23:09:41.510Z,16.58
2023-04-16T23:12:11.470Z,16.95
2023-04-16T23:14:46.161Z,16.40
2023-04-16T23:17:16.418Z,16.77
2023-04-16T23:19:48.851Z,17.25
2023-04-16T23:22:18.714Z,17.20
2023-04-16T23:24:48.534Z,16.55
2023-04-16T23:27:18.452Z,16.70
2023-04-16T23:29:48.477Z,17.40
2023-04-16T23:32:18.403Z,17.05
2023-04-16T23:34:50.841Z,16.48
2023-04-16T23:37:20.777Z,18.52
2023-04-16T23:39:50.699Z,17.30
2023-04-16T23:42:20.683Z,18.10
2023-04-16T23:44:50.496Z,17.25
2023-04-16T23:47:20.376Z,17.02
2023-04-16T23:49:52.787Z,16.85
2023-04-16T23:52:22.696Z,18.13
2023-04-16T23:54:52.525Z,16.95
2023-04-16T23:57:22.386Z,16.88
2023-04-16T23:59:52.240Z,17.20
